Skip Navigation Links
NOAA logo - Click to go to the NOAA homepage
NOAA's National Weather Service
Alaska Aviation Weather Unit
  NWS logo - Click to go to the NWS homepage
Left Navbar Graphic     00 AKDT = 08 GMT

   
NOAA is celebrating 200 years of science, service, and stewardship. Visit the NOAA 200th celebration Web site to learn more.
USA.gov is the U.S. Government's official Web portal to all Federal, state and local government Web resources and services.
Facebook
NWS on Facebook

Important Change Regarding the AAWU Web Presence

 

Over the last several months, the AAWU has been working to navigate its webpages to a nationally supported server. Security, as well as other needs, have necessitated the change.  We have been given an extension for the site changeover while we diligently work at addressing feedback received. As of July 14, 2017, aawu.arh.noaa.gov will be discontinued. The new AAWU web address is weather.gov/aawu. It is now live and will run in-parallel with the old site until it is discontinued on July 14, 2017. Please continue to send any feedback or questions regarding the new webpages to nws.ar.aawu.webauthors@noaa.gov.  Thank you for your patience during this time of transition.
AAWU Home :: Display TAF Add Bookmark
TAF PAUN 240540Z 2406/2506  07015KT P6SM OVC100=

4336
FTAK31 PAFA 240540
TAFAOR
TAF

METAR PAUN 240256Z AUTO 08012KT 10SM BKN100 09/06 A2951 RMK AO2 SLP998 T00940056 57007= METAR PAUN 240356Z AUTO 07012G17KT 10SM FEW075 BKN100 10/06 A2951 RMK AO2 SLP997 T01000056= METAR PAUN 240456Z AUTO 07012KT 10SM OVC100 09/06 A2951 RMK AO2 SLP997 T00940056= METAR PAUN 240556Z AUTO 07015G21KT 10SM FEW075 OVC095 09/05 A2951 RMK AO2 SLP996 T00940050 10106 20094 57003= METAR PAUN 240656Z AUTO 04007KT 10SM OVC090 09/05 A2952 RMK AO2 SLP000 T00890050= PAUN 240756Z AUTO 03005KT 10SM BKN110 08/05 A2952 RMK AO2 SLP999 T00830050=
 Alaska TAF Map

NOAA's National Weather Service
Alaska Aviation Weather Unit
6930 Sand Lake Road
Anchorage, AK 99502-1845
Disclaimer
Credits
Glossary
Privacy Policy
About Us
Career Opportunities
Contact AAWU Internet Services Site last modified: April, 17th 2012